sensor_id;sensor_type;location;lat;lon;timestamp;pressure;altitude;pressure_sealevel;temperature;humidity
17311;BME280;8773;43.300;0.394;2024-02-21T00:00:52;100853.03;;;7.61;100.00
17311;BME280;8773;43.300;0.394;2024-02-21T00:03:21;100837.00;;;7.50;100.00
17311;BME280;8773;43.300;0.394;2024-02-21T00:05:48;100833.38;;;7.51;100.00
17311;BME280;8773;43.300;0.394;2024-02-21T00:08:16;100823.50;;;7.40;100.00
17311;BME280;8773;43.300;0.394;2024-02-21T00:10:43;100826.09;;;7.29;100.00
17311;BME280;8773;43.300;0.394;2024-02-21T00:13:20;100809.41;;;7.14;100.00
17311;BME280;8773;43.300;0.394;2024-02-21T00:15:47;100810.22;;;7.40;100.00
17311;BME280;8773;43.300;0.394;2024-02-21T00:18:14;100808.69;;;7.38;100.00
17311;BME280;8773;43.300;0.394;2024-02-21T00:20:44;100805.59;;;7.31;100.00
17311;BME280;8773;43.300;0.394;2024-02-21T00:23:11;100798.47;;;7.32;100.00
17311;BME280;8773;43.300;0.394;2024-02-21T00:25:38;100789.13;;;7.39;100.00
17311;BME280;8773;43.300;0.394;2024-02-21T00:28:06;100783.81;;;7.39;100.00
17311;BME280;8773;43.300;0.394;2024-02-21T00:30:33;100777.78;;;7.24;100.00
17311;BME280;8773;43.300;0.394;2024-02-21T00:33:00;100773.00;;;7.16;100.00
17311;BME280;8773;43.300;0.394;2024-02-21T00:35:28;100770.97;;;7.07;100.00
17311;BME280;8773;43.300;0.394;2024-02-21T00:37:57;100760.34;;;7.20;100.00
17311;BME280;8773;43.300;0.394;2024-02-21T00:40:24;100756.53;;;7.11;100.00
17311;BME280;8773;43.300;0.394;2024-02-21T00:42:52;100735.19;;;7.13;100.00
17311;BME280;8773;43.300;0.394;2024-02-21T00:45:19;100744.84;;;7.26;100.00
17311;BME280;8773;43.300;0.394;2024-02-21T00:47:46;100742.72;;;7.32;100.00
17311;BME280;8773;43.300;0.394;2024-02-21T00:50:14;100744.00;;;7.26;100.00
17311;BME280;8773;43.300;0.394;2024-02-21T00:52:41;100730.50;;;7.29;100.00
17311;BME280;8773;43.300;0.394;2024-02-21T00:55:10;100719.97;;;7.27;100.00
17311;BME280;8773;43.300;0.394;2024-02-21T00:57:37;100720.94;;;7.26;100.00
17311;BME280;8773;43.300;0.394;2024-02-21T01:00:06;100705.94;;;7.38;100.00
17311;BME280;8773;43.300;0.394;2024-02-21T01:02:33;100702.44;;;7.38;100.00
17311;BME280;8773;43.300;0.394;2024-02-21T01:05:01;100702.19;;;7.41;100.00
17311;BME280;8773;43.300;0.394;2024-02-21T01:07:29;100705.09;;;7.38;100.00
17311;BME280;8773;43.300;0.394;2024-02-21T01:09:57;100703.19;;;7.27;100.00
17311;BME280;8773;43.300;0.394;2024-02-21T01:12:25;100706.06;;;7.24;100.00
17311;BME280;8773;43.300;0.394;2024-02-21T01:14:53;100695.78;;;7.19;100.00
17311;BME280;8773;43.300;0.394;2024-02-21T01:17:20;100696.75;;;7.18;100.00
17311;BME280;8773;43.300;0.394;2024-02-21T01:19:47;100695.56;;;7.22;100.00
17311;BME280;8773;43.300;0.394;2024-02-21T01:22:15;100691.94;;;7.23;100.00
17311;BME280;8773;43.300;0.394;2024-02-21T01:24:42;100700.69;;;7.00;100.00
17311;BME280;8773;43.300;0.394;2024-02-21T01:27:10;100694.94;;;7.06;100.00
17311;BME280;8773;43.300;0.394;2024-02-21T01:29:38;100680.09;;;7.04;100.00
17311;BME280;8773;43.300;0.394;2024-02-21T01:32:06;100671.06;;;7.06;100.00
17311;BME280;8773;43.300;0.394;2024-02-21T01:34:33;100671.06;;;7.06;100.00
17311;BME280;8773;43.300;0.394;2024-02-21T01:37:01;100664.06;;;7.05;100.00
17311;BME280;8773;43.300;0.394;2024-02-21T01:39:28;100660.88;;;7.00;100.00
17311;BME280;8773;43.300;0.394;2024-02-21T01:41:55;100673.66;;;6.95;100.00
17311;BME280;8773;43.300;0.394;2024-02-21T01:44:23;100666.66;;;6.94;100.00
17311;BME280;8773;43.300;0.394;2024-02-21T01:46:52;100661.34;;;6.81;100.00
17311;BME280;8773;43.300;0.394;2024-02-21T01:49:21;100649.34;;;6.76;100.00
17311;BME280;8773;43.300;0.394;2024-02-21T01:51:49;100646.03;;;6.59;100.00
17311;BME280;8773;43.300;0.394;2024-02-21T01:54:17;100645.44;;;6.43;100.00
17311;BME280;8773;43.300;0.394;2024-02-21T01:56:46;100639.47;;;6.27;100.00
17311;BME280;8773;43.300;0.394;2024-02-21T01:59:15;100637.47;;;6.43;100.00
17311;BME280;8773;43.300;0.394;2024-02-21T02:01:44;100636.31;;;6.47;100.00
17311;BME280;8773;43.300;0.394;2024-02-21T02:04:14;100643.41;;;6.47;100.00
17311;BME280;8773;43.300;0.394;2024-02-21T02:06:42;100633.75;;;6.46;100.00
17311;BME280;8773;43.300;0.394;2024-02-21T02:09:09;100616.69;;;6.37;100.00
17311;BME280;8773;43.300;0.394;2024-02-21T02:11:37;100624.09;;;6.45;100.00
17311;BME280;8773;43.300;0.394;2024-02-21T02:14:04;100617.63;;;6.36;100.00
17311;BME280;8773;43.300;0.394;2024-02-21T02:16:32;100609.13;;;6.31;100.00
17311;BME280;8773;43.300;0.394;2024-02-21T02:18:59;100604.16;;;6.26;100.00
17311;BME280;8773;43.300;0.394;2024-02-21T02:21:29;100606.59;;;6.04;100.00
17311;BME280;8773;43.300;0.394;2024-02-21T02:23:58;100614.84;;;6.00;100.00
17311;BME280;8773;43.300;0.394;2024-02-21T02:26:26;100612.94;;;6.02;100.00
17311;BME280;8773;43.300;0.394;2024-02-21T02:28:53;100605.75;;;6.04;100.00
17311;BME280;8773;43.300;0.394;2024-02-21T02:31:21;100598.94;;;6.12;100.00
17311;BME280;8773;43.300;0.394;2024-02-21T02:33:48;100597.03;;;6.14;100.00
17311;BME280;8773;43.300;0.394;2024-02-21T02:36:16;100598.44;;;6.07;100.00
17311;BME280;8773;43.300;0.394;2024-02-21T02:38:43;100599.59;;;6.16;100.00
17311;BME280;8773;43.300;0.394;2024-02-21T02:41:12;100597.69;;;6.18;100.00
17311;BME280;8773;43.300;0.394;2024-02-21T02:43:39;100602.97;;;6.18;100.00
17311;BME280;8773;43.300;0.394;2024-02-21T02:46:07;100597.03;;;6.14;100.00
17311;BME280;8773;43.300;0.394;2024-02-21T02:48:34;100596.63;;;6.08;100.00
17311;BME280;8773;43.300;0.394;2024-02-21T02:51:02;100604.69;;;6.06;100.00
17311;BME280;8773;43.300;0.394;2024-02-21T02:53:29;100601.50;;;6.01;100.00
17311;BME280;8773;43.300;0.394;2024-02-21T02:55:56;100602.88;;;6.07;100.00
17311;BME280;8773;43.300;0.394;2024-02-21T02:58:25;100603.63;;;5.96;100.00
17311;BME280;8773;43.300;0.394;2024-02-21T03:00:52;100597.56;;;5.94;100.00
17311;BME280;8773;43.300;0.394;2024-02-21T03:03:20;100602.97;;;5.92;100.00
17311;BME280;8773;43.300;0.394;2024-02-21T03:05:47;100592.47;;;5.91;100.00
17311;BME280;8773;43.300;0.394;2024-02-21T03:08:14;100582.94;;;5.88;100.00
17311;BME280;8773;43.300;0.394;2024-02-21T03:10:42;100584.41;;;5.80;100.00
17311;BME280;8773;43.300;0.394;2024-02-21T03:13:09;100586.19;;;5.79;100.00
17311;BME280;8773;43.300;0.394;2024-02-21T03:15:39;100568.50;;;5.80;100.00
17311;BME280;8773;43.300;0.394;2024-02-21T03:18:06;100573.81;;;5.80;100.00
17311;BME280;8773;43.300;0.394;2024-02-21T03:20:33;100567.53;;;5.68;100.00
17311;BME280;8773;43.300;0.394;2024-02-21T03:23:01;100573.47;;;5.72;100.00
17311;BME280;8773;43.300;0.394;2024-02-21T03:25:28;100564.16;;;5.66;100.00
17311;BME280;8773;43.300;0.394;2024-02-21T03:27:56;100571.97;;;5.55;100.00
17311;BME280;8773;43.300;0.394;2024-02-21T03:30:23;100565.06;;;5.52;100.00
17311;BME280;8773;43.300;0.394;2024-02-21T03:32:52;100558.94;;;5.52;100.00
17311;BME280;8773;43.300;0.394;2024-02-21T03:35:19;100559.22;;;5.47;100.00
17311;BME280;8773;43.300;0.394;2024-02-21T03:37:47;100540.56;;;5.36;100.00
17311;BME280;8773;43.300;0.394;2024-02-21T03:40:14;100542.75;;;5.29;100.00
17311;BME280;8773;43.300;0.394;2024-02-21T03:42:42;100533.13;;;5.28;100.00
17311;BME280;8773;43.300;0.394;2024-02-21T03:45:09;100521.03;;;5.24;100.00
17311;BME280;8773;43.300;0.394;2024-02-21T03:47:37;100520.50;;;5.19;100.00
17311;BME280;8773;43.300;0.394;2024-02-21T03:50:07;100517.22;;;5.16;100.00
17311;BME280;8773;43.300;0.394;2024-02-21T03:52:34;100506.34;;;5.20;100.00
17311;BME280;8773;43.300;0.394;2024-02-21T03:55:02;100508.63;;;5.12;100.00
17311;BME280;8773;43.300;0.394;2024-02-21T03:57:29;100506.00;;;5.12;100.00
17311;BME280;8773;43.300;0.394;2024-02-21T03:59:57;100500.69;;;5.12;100.00
17311;BME280;8773;43.300;0.394;2024-02-21T04:02:24;100503.16;;;5.28;100.00
17311;BME280;8773;43.300;0.394;2024-02-21T04:04:51;100506.66;;;5.28;100.00
17311;BME280;8773;43.300;0.394;2024-02-21T04:07:20;100505.50;;;5.20;100.00
17311;BME280;8773;43.300;0.394;2024-02-21T04:09:48;100503.47;;;5.23;100.00
17311;BME280;8773;43.300;0.394;2024-02-21T04:12:15;100495.84;;;5.19;100.00
17311;BME280;8773;43.300;0.394;2024-02-21T04:14:42;100500.94;;;5.22;100.00
17311;BME280;8773;43.300;0.394;2024-02-21T04:17:13;100493.41;;;5.16;100.00
17311;BME280;8773;43.300;0.394;2024-02-21T04:19:40;100501.44;;;5.14;100.00
17311;BME280;8773;43.300;0.394;2024-02-21T04:22:08;100497.94;;;5.14;100.00
17311;BME280;8773;43.300;0.394;2024-02-21T04:24:37;100492.84;;;5.11;100.00
17311;BME280;8773;43.300;0.394;2024-02-21T04:27:04;100491.06;;;5.11;100.00
17311;BME280;8773;43.300;0.394;2024-02-21T04:29:31;100493.06;;;5.08;100.00
17311;BME280;8773;43.300;0.394;2024-02-21T04:31:59;100482.28;;;4.84;100.00
17311;BME280;8773;43.300;0.394;2024-02-21T04:34:26;100483.81;;;5.01;100.00
17311;BME280;8773;43.300;0.394;2024-02-21T04:36:54;100471.84;;;4.95;100.00
17311;BME280;8773;43.300;0.394;2024-02-21T04:39:21;100466.50;;;5.09;100.00
17311;BME280;8773;43.300;0.394;2024-02-21T04:41:50;100467.44;;;5.08;100.00
17311;BME280;8773;43.300;0.394;2024-02-21T04:44:17;100462.47;;;5.04;100.00
17311;BME280;8773;43.300;0.394;2024-02-21T04:46:44;100452.94;;;5.01;100.00
17311;BME280;8773;43.300;0.394;2024-02-21T04:49:12;100439.59;;;5.03;100.00
17311;BME280;8773;43.300;0.394;2024-02-21T04:51:41;100447.44;;;5.04;100.00
17311;BME280;8773;43.300;0.394;2024-02-21T04:54:08;100455.31;;;4.91;100.00
17311;BME280;8773;43.300;0.394;2024-02-21T04:56:35;100453.72;;;4.89;100.00
17311;BME280;8773;43.300;0.394;2024-02-21T04:59:04;100463.16;;;4.93;100.00
17311;BME280;8773;43.300;0.394;2024-02-21T05:01:32;100476.53;;;5.04;100.00
17311;BME280;8773;43.300;0.394;2024-02-21T05:03:59;100481.44;;;5.10;100.00
17311;BME280;8773;43.300;0.394;2024-02-21T05:06:26;100476.00;;;4.99;100.00
17311;BME280;8773;43.300;0.394;2024-02-21T05:08:54;100473.94;;;4.90;100.00
17311;BME280;8773;43.300;0.394;2024-02-21T05:11:21;100468.25;;;4.96;100.00
17311;BME280;8773;43.300;0.394;2024-02-21T05:13:49;100471.44;;;5.01;100.00
17311;BME280;8773;43.300;0.394;2024-02-21T05:16:18;100466.69;;;5.06;100.00
17311;BME280;8773;43.300;0.394;2024-02-21T05:18:45;100467.00;;;5.02;100.00
17311;BME280;8773;43.300;0.394;2024-02-21T05:21:13;100460.56;;;5.06;100.00
17311;BME280;8773;43.300;0.394;2024-02-21T05:23:40;100461.94;;;5.11;100.00
17311;BME280;8773;43.300;0.394;2024-02-21T05:26:08;100461.56;;;5.17;100.00
17311;BME280;8773;43.300;0.394;2024-02-21T05:28:35;100458.16;;;5.15;100.00
17311;BME280;8773;43.300;0.394;2024-02-21T05:31:03;100461.09;;;5.11;100.00
17311;BME280;8773;43.300;0.394;2024-02-21T05:33:32;100463.84;;;5.09;100.00
17311;BME280;8773;43.300;0.394;2024-02-21T05:35:59;100468.59;;;5.04;100.00
17311;BME280;8773;43.300;0.394;2024-02-21T05:38:26;100466.34;;;4.98;100.00
17311;BME280;8773;43.300;0.394;2024-02-21T05:40:54;100468.50;;;5.06;100.00
17311;BME280;8773;43.300;0.394;2024-02-21T05:43:21;100459.09;;;5.14;100.00
17311;BME280;8773;43.300;0.394;2024-02-21T05:45:49;100449.91;;;5.20;100.00
17311;BME280;8773;43.300;0.394;2024-02-21T05:48:16;100439.84;;;5.25;100.00
17311;BME280;8773;43.300;0.394;2024-02-21T05:50:45;100439.84;;;5.25;100.00
17311;BME280;8773;43.300;0.394;2024-02-21T05:53:12;100445.03;;;5.26;100.00
17311;BME280;8773;43.300;0.394;2024-02-21T05:55:40;100440.59;;;5.14;100.00
17311;BME280;8773;43.300;0.394;2024-02-21T05:58:08;100448.38;;;5.03;100.00
17311;BME280;8773;43.300;0.394;2024-02-21T06:00:35;100449.44;;;5.01;100.00
17311;BME280;8773;43.300;0.394;2024-02-21T06:03:04;100445.38;;;4.95;100.00
17311;BME280;8773;43.300;0.394;2024-02-21T06:05:31;100445.34;;;4.82;100.00
17311;BME280;8773;43.300;0.394;2024-02-21T06:08:00;100446.19;;;4.83;100.00
17311;BME280;8773;43.300;0.394;2024-02-21T06:10:27;100430.41;;;4.81;100.00
17311;BME280;8773;43.300;0.394;2024-02-21T06:12:54;100438.16;;;4.84;100.00
17311;BME280;8773;43.300;0.394;2024-02-21T06:15:22;100433.72;;;4.85;100.00
17311;BME280;8773;43.300;0.394;2024-02-21T06:17:49;100436.91;;;4.90;100.00
17311;BME280;8773;43.300;0.394;2024-02-21T06:20:16;100437.97;;;4.87;100.00
17311;BME280;8773;43.300;0.394;2024-02-21T06:22:44;100435.16;;;5.03;100.00
17311;BME280;8773;43.300;0.394;2024-02-21T06:25:13;100434.53;;;5.12;100.00
17311;BME280;8773;43.300;0.394;2024-02-21T06:27:40;100439.94;;;5.11;100.00
17311;BME280;8773;43.300;0.394;2024-02-21T06:30:08;100430.59;;;5.05;100.00
17311;BME280;8773;43.300;0.394;2024-02-21T06:32:36;100434.53;;;5.12;100.00
17311;BME280;8773;43.300;0.394;2024-02-21T06:35:04;100426.47;;;5.01;100.00
17311;BME280;8773;43.300;0.394;2024-02-21T06:37:31;100431.00;;;4.99;100.00
17311;BME280;8773;43.300;0.394;2024-02-21T06:39:59;100428.13;;;4.89;100.00
17311;BME280;8773;43.300;0.394;2024-02-21T06:42:27;100428.22;;;4.88;100.00
17311;BME280;8773;43.300;0.394;2024-02-21T06:44:55;100426.22;;;4.79;100.00
17311;BME280;8773;43.300;0.394;2024-02-21T06:47:22;100422.81;;;4.77;100.00
17311;BME280;8773;43.300;0.394;2024-02-21T06:49:50;100421.63;;;4.68;100.00
17311;BME280;8773;43.300;0.394;2024-02-21T06:52:18;100418.88;;;4.70;100.00
17311;BME280;8773;43.300;0.394;2024-02-21T06:54:45;100416.34;;;4.81;100.00
17311;BME280;8773;43.300;0.394;2024-02-21T06:57:13;100411.06;;;4.81;100.00
17311;BME280;8773;43.300;0.394;2024-02-21T06:59:42;100411.41;;;4.89;100.00
17311;BME280;8773;43.300;0.394;2024-02-21T07:02:09;100405.06;;;4.91;100.00
17311;BME280;8773;43.300;0.394;2024-02-21T07:04:36;100409.41;;;4.92;100.00
17311;BME280;8773;43.300;0.394;2024-02-21T07:07:04;100412.06;;;4.92;100.00
17311;BME280;8773;43.300;0.394;2024-02-21T07:09:32;100414.19;;;5.00;100.00
17311;BME280;8773;43.300;0.394;2024-02-21T07:11:59;100416.44;;;5.06;100.00
17311;BME280;8773;43.300;0.394;2024-02-21T07:14:28;100425.97;;;5.09;100.00
17311;BME280;8773;43.300;0.394;2024-02-21T07:16:57;100423.41;;;5.07;100.00
17311;BME280;8773;43.300;0.394;2024-02-21T07:19:24;100415.81;;;5.15;100.00
17311;BME280;8773;43.300;0.394;2024-02-21T07:21:51;100423.22;;;5.36;100.00
17311;BME280;8773;43.300;0.394;2024-02-21T07:24:19;100419.97;;;5.45;100.00
17311;BME280;8773;43.300;0.394;2024-02-21T07:26:46;100424.75;;;5.65;100.00
17311;BME280;8773;43.300;0.394;2024-02-21T07:29:14;100430.22;;;5.75;100.00
17311;BME280;8773;43.300;0.394;2024-02-21T07:31:42;100426.84;;;5.85;100.00
17311;BME280;8773;43.300;0.394;2024-02-21T07:34:11;100427.47;;;6.02;100.00
17311;BME280;8773;43.300;0.394;2024-02-21T07:36:38;100424.63;;;6.28;100.00
17311;BME280;8773;43.300;0.394;2024-02-21T07:39:06;100416.56;;;6.30;100.00
17311;BME280;8773;43.300;0.394;2024-02-21T07:41:33;100416.34;;;6.33;100.00
17311;BME280;8773;43.300;0.394;2024-02-21T07:44:01;100425.03;;;6.35;100.00
17311;BME280;8773;43.300;0.394;2024-02-21T07:46:28;100423.19;;;6.48;100.00
17311;BME280;8773;43.300;0.394;2024-02-21T07:48:55;100424.66;;;6.52;100.00
17311;BME280;8773;43.300;0.394;2024-02-21T07:51:27;100434.78;;;6.71;100.00
17311;BME280;8773;43.300;0.394;2024-02-21T07:53:55;100422.31;;;6.84;100.00
17311;BME280;8773;43.300;0.394;2024-02-21T07:56:22;100425.31;;;6.80;99.96
17311;BME280;8773;43.300;0.394;2024-02-21T07:58:50;100438.63;;;6.91;100.00
17311;BME280;8773;43.300;0.394;2024-02-21T08:01:18;100432.38;;;7.03;100.00
17311;BME280;8773;43.300;0.394;2024-02-21T08:03:46;100432.31;;;7.16;100.00
17311;BME280;8773;43.300;0.394;2024-02-21T08:06:13;100440.91;;;7.19;99.32
17311;BME280;8773;43.300;0.394;2024-02-21T08:08:42;100437.09;;;7.35;97.49
17311;BME280;8773;43.300;0.394;2024-02-21T08:11:10;100439.63;;;7.36;95.03
17311;BME280;8773;43.300;0.394;2024-02-21T08:13:37;100441.91;;;7.41;95.26
17311;BME280;8773;43.300;0.394;2024-02-21T08:16:05;100442.75;;;7.41;94.55
17311;BME280;8773;43.300;0.394;2024-02-21T08:18:32;100447.28;;;7.63;94.88
17311;BME280;8773;43.300;0.394;2024-02-21T08:20:59;100440.78;;;7.67;93.72
17311;BME280;8773;43.300;0.394;2024-02-21T08:23:27;100432.31;;;7.73;93.59
17311;BME280;8773;43.300;0.394;2024-02-21T08:25:56;100439.44;;;7.61;93.03
17311;BME280;8773;43.300;0.394;2024-02-21T08:28:23;100434.03;;;7.74;92.28
17311;BME280;8773;43.300;0.394;2024-02-21T08:30:51;100435.34;;;7.80;92.17
17311;BME280;8773;43.300;0.394;2024-02-21T08:33:18;100429.78;;;7.94;92.46
17311;BME280;8773;43.300;0.394;2024-02-21T08:35:45;100423.25;;;7.98;93.02
17311;BME280;8773;43.300;0.394;2024-02-21T08:38:13;100436.06;;;8.15;91.29
17311;BME280;8773;43.300;0.394;2024-02-21T08:40:41;100434.50;;;8.13;91.02
17311;BME280;8773;43.300;0.394;2024-02-21T08:43:09;100431.06;;;8.33;90.91
17311;BME280;8773;43.300;0.394;2024-02-21T08:45:37;100437.13;;;8.35;87.74
17311;BME280;8773;43.300;0.394;2024-02-21T08:48:05;100441.84;;;8.54;86.01
17311;BME280;8773;43.300;0.394;2024-02-21T08:50:33;100445.00;;;8.91;87.50
17311;BME280;8773;43.300;0.394;2024-02-21T08:53:01;100451.22;;;9.12;85.01
17311;BME280;8773;43.300;0.394;2024-02-21T08:55:28;100442.72;;;9.39;83.23
17311;BME280;8773;43.300;0.394;2024-02-21T08:57:56;100451.38;;;9.52;80.53
17311;BME280;8773;43.300;0.394;2024-02-21T09:00:24;100451.34;;;9.73;80.16
17311;BME280;8773;43.300;0.394;2024-02-21T09:02:52;100442.41;;;9.84;79.18
17311;BME280;8773;43.300;0.394;2024-02-21T09:05:19;100440.53;;;9.95;78.80
17311;BME280;8773;43.300;0.394;2024-02-21T09:07:47;100445.00;;;9.95;78.51
17311;BME280;8773;43.300;0.394;2024-02-21T09:10:14;100445.63;;;10.08;77.15
17311;BME280;8773;43.300;0.394;2024-02-21T09:12:42;100443.72;;;10.20;75.51
17311;BME280;8773;43.300;0.394;2024-02-21T09:15:10;100440.28;;;10.39;74.56
17311;BME280;8773;43.300;0.394;2024-02-21T09:17:38;100453.75;;;10.47;73.00
17311;BME280;8773;43.300;0.394;2024-02-21T09:20:07;100454.91;;;10.54;75.05
17311;BME280;8773;43.300;0.394;2024-02-21T09:22:35;100442.41;;;10.54;74.83
17311;BME280;8773;43.300;0.394;2024-02-21T09:25:03;100457.06;;;10.70;73.27
17311;BME280;8773;43.300;0.394;2024-02-21T09:27:30;100455.97;;;10.82;74.11
17311;BME280;8773;43.300;0.394;2024-02-21T09:29:57;100454.28;;;11.00;72.73
17311;BME280;8773;43.300;0.394;2024-02-21T09:32:25;100455.41;;;11.07;73.01
17311;BME280;8773;43.300;0.394;2024-02-21T09:34:54;100463.16;;;11.20;70.42
17311;BME280;8773;43.300;0.394;2024-02-21T09:37:26;100466.81;;;11.28;71.67
17311;BME280;8773;43.300;0.394;2024-02-21T09:39:54;100462.31;;;11.29;70.38
17311;BME280;8773;43.300;0.394;2024-02-21T09:42:21;100477.91;;;11.43;71.93
17311;BME280;8773;43.300;0.394;2024-02-21T09:44:52;100478.47;;;11.56;72.56
17311;BME280;8773;43.300;0.394;2024-02-21T09:47:24;100475.50;;;11.69;73.77
17311;BME280;8773;43.300;0.394;2024-02-21T09:50:00;100481.22;;;11.93;73.16
17311;BME280;8773;43.300;0.394;2024-02-21T09:52:29;100475.69;;;12.05;71.94
17311;BME280;8773;43.300;0.394;2024-02-21T09:54:58;100467.31;;;12.17;72.47
17311;BME280;8773;43.300;0.394;2024-02-21T09:57:26;100476.56;;;12.33;71.13
17311;BME280;8773;43.300;0.394;2024-02-21T09:59:53;100476.13;;;12.37;71.44
17311;BME280;8773;43.300;0.394;2024-02-21T10:02:22;100465.50;;;12.45;69.51
17311;BME280;8773;43.300;0.394;2024-02-21T10:04:50;100472.72;;;12.62;67.46
17311;BME280;8773;43.300;0.394;2024-02-21T10:07:19;100462.00;;;12.72;67.00
17311;BME280;8773;43.300;0.394;2024-02-21T10:09:46;100457.66;;;12.89;67.66
17311;BME280;8773;43.300;0.394;2024-02-21T10:12:13;100470.31;;;12.97;67.12
17311;BME280;8773;43.300;0.394;2024-02-21T10:14:41;100459.28;;;13.00;66.63
17311;BME280;8773;43.300;0.394;2024-02-21T10:17:14;100467.38;;;13.08;65.64
17311;BME280;8773;43.300;0.394;2024-02-21T10:19:42;100465.38;;;13.10;65.55
17311;BME280;8773;43.300;0.394;2024-02-21T10:22:10;100466.91;;;13.12;66.89
17311;BME280;8773;43.300;0.394;2024-02-21T10:24:39;100460.19;;;13.26;69.04
17311;BME280;8773;43.300;0.394;2024-02-21T10:27:07;100453.06;;;13.35;66.05
17311;BME280;8773;43.300;0.394;2024-02-21T10:29:35;100456.97;;;13.40;65.94
17311;BME280;8773;43.300;0.394;2024-02-21T10:32:07;100453.00;;;13.52;65.92
17311;BME280;8773;43.300;0.394;2024-02-21T10:34:35;100452.22;;;13.60;67.81
17311;BME280;8773;43.300;0.394;2024-02-21T10:37:06;100447.25;;;13.65;66.64
17311;BME280;8773;43.300;0.394;2024-02-21T10:39:36;100444.09;;;13.70;67.44
17311;BME280;8773;43.300;0.394;2024-02-21T10:42:05;100447.00;;;13.76;65.46
17311;BME280;8773;43.300;0.394;2024-02-21T10:44:34;100443.47;;;13.76;62.90
17311;BME280;8773;43.300;0.394;2024-02-21T10:47:07;100448.78;;;13.93;62.25
17311;BME280;8773;43.300;0.394;2024-02-21T10:49:38;100444.16;;;14.04;60.76
17311;BME280;8773;43.300;0.394;2024-02-21T10:52:12;100451.13;;;14.22;61.50
17311;BME280;8773;43.300;0.394;2024-02-21T10:54:44;100441.59;;;14.36;60.84
17311;BME280;8773;43.300;0.394;2024-02-21T10:57:14;100441.00;;;14.50;59.84
17311;BME280;8773;43.300;0.394;2024-02-21T10:59:44;100448.13;;;14.68;61.77
17311;BME280;8773;43.300;0.394;2024-02-21T11:02:11;100445.09;;;14.79;58.93
17311;BME280;8773;43.300;0.394;2024-02-21T11:04:40;100449.50;;;14.88;56.91
17311;BME280;8773;43.300;0.394;2024-02-21T11:07:09;100445.84;;;14.97;55.18
17311;BME280;8773;43.300;0.394;2024-02-21T11:09:38;100439.97;;;15.02;51.12
17311;BME280;8773;43.300;0.394;2024-02-21T11:12:06;100433.25;;;14.98;50.84
17311;BME280;8773;43.300;0.394;2024-02-21T11:14:38;100424.34;;;14.97;46.85
17311;BME280;8773;43.300;0.394;2024-02-21T11:17:14;100427.03;;;15.05;47.09
17311;BME280;8773;43.300;0.394;2024-02-21T11:19:42;100433.75;;;15.34;45.45
17311;BME280;8773;43.300;0.394;2024-02-21T11:22:14;100430.41;;;15.48;43.02
17311;BME280;8773;43.300;0.394;2024-02-21T11:24:42;100437.28;;;15.58;42.42
17311;BME280;8773;43.300;0.394;2024-02-21T11:27:12;100434.22;;;15.70;42.65
17311;BME280;8773;43.300;0.394;2024-02-21T11:29:42;100431.72;;;15.68;41.49
17311;BME280;8773;43.300;0.394;2024-02-21T11:32:10;100426.31;;;15.68;40.38
17311;BME280;8773;43.300;0.394;2024-02-21T11:34:38;100427.66;;;15.72;41.63
17311;BME280;8773;43.300;0.394;2024-02-21T11:37:13;100421.59;;;15.78;40.04
17311;BME280;8773;43.300;0.394;2024-02-21T11:39:41;100416.88;;;15.88;40.50
17311;BME280;8773;43.300;0.394;2024-02-21T11:42:08;100413.84;;;15.83;39.47
17311;BME280;8773;43.300;0.394;2024-02-21T11:44:37;100400.72;;;15.97;40.56
17311;BME280;8773;43.300;0.394;2024-02-21T11:47:06;100401.22;;;15.92;40.55
17311;BME280;8773;43.300;0.394;2024-02-21T11:49:36;100400.38;;;15.91;40.37
17311;BME280;8773;43.300;0.394;2024-02-21T11:52:04;100393.28;;;16.07;41.20
17311;BME280;8773;43.300;0.394;2024-02-21T11:54:32;100384.28;;;16.22;40.54
17311;BME280;8773;43.300;0.394;2024-02-21T11:57:00;100387.47;;;16.26;41.08
17311;BME280;8773;43.300;0.394;2024-02-21T11:59:30;100382.38;;;16.39;41.10
17311;BME280;8773;43.300;0.394;2024-02-21T12:01:58;100377.19;;;16.30;41.15
17311;BME280;8773;43.300;0.394;2024-02-21T12:04:27;100367.41;;;16.37;41.34
17311;BME280;8773;43.300;0.394;2024-02-21T12:06:55;100372.50;;;16.54;41.30
17311;BME280;8773;43.300;0.394;2024-02-21T12:09:23;100367.84;;;16.48;41.02
17311;BME280;8773;43.300;0.394;2024-02-21T12:11:57;100358.34;;;16.52;40.49
17311;BME280;8773;43.300;0.394;2024-02-21T12:14:26;100353.13;;;16.51;41.04
17311;BME280;8773;43.300;0.394;2024-02-21T12:16:54;100345.72;;;16.53;41.15
17311;BME280;8773;43.300;0.394;2024-02-21T12:19:21;100342.31;;;16.36;41.26
17311;BME280;8773;43.300;0.394;2024-02-21T12:21:50;100358.19;;;16.54;40.40
17311;BME280;8773;43.300;0.394;2024-02-21T12:24:21;100344.78;;;16.69;40.40
17311;BME280;8773;43.300;0.394;2024-02-21T12:26:49;100340.03;;;16.71;41.48
17311;BME280;8773;43.300;0.394;2024-02-21T12:29:16;100336.13;;;16.50;39.60
17311;BME280;8773;43.300;0.394;2024-02-21T12:31:44;100320.16;;;16.72;40.64
17311;BME280;8773;43.300;0.394;2024-02-21T12:34:14;100325.63;;;16.86;40.81
17311;BME280;8773;43.300;0.394;2024-02-21T12:36:43;100310.88;;;16.97;41.19
17311;BME280;8773;43.300;0.394;2024-02-21T12:39:12;100310.16;;;17.03;41.37
17311;BME280;8773;43.300;0.394;2024-02-21T12:41:39;100307.91;;;16.92;39.92
17311;BME280;8773;43.300;0.394;2024-02-21T12:44:07;100305.13;;;17.00;39.64
17311;BME280;8773;43.300;0.394;2024-02-21T12:46:35;100293.59;;;17.06;39.86
17311;BME280;8773;43.300;0.394;2024-02-21T12:49:03;100287.28;;;17.14;40.42
17311;BME280;8773;43.300;0.394;2024-02-21T12:51:30;100277.91;;;17.24;39.96
17311;BME280;8773;43.300;0.394;2024-02-21T12:53:58;100280.06;;;17.44;39.41
17311;BME280;8773;43.300;0.394;2024-02-21T12:56:26;100270.66;;;17.54;38.76
17311;BME280;8773;43.300;0.394;2024-02-21T12:58:54;100265.44;;;17.68;39.17
17311;BME280;8773;43.300;0.394;2024-02-21T13:01:21;100261.06;;;17.67;39.52
17311;BME280;8773;43.300;0.394;2024-02-21T13:03:49;100252.97;;;17.67;38.29